sensor_id;sensor_type;location;lat;lon;timestamp;P1;durP1;ratioP1;P2;durP2;ratioP2
40537;SDS011;27925;41.874;12.526;2022-08-21T00:01:29;14.88;;;4.75;;
40537;SDS011;27925;41.874;12.526;2022-08-21T00:03:55;9.05;;;4.80;;
40537;SDS011;27925;41.874;12.526;2022-08-21T00:06:22;10.60;;;4.13;;
40537;SDS011;27925;41.874;12.526;2022-08-21T00:08:49;9.85;;;4.43;;
40537;SDS011;27925;41.874;12.526;2022-08-21T00:11:16;9.77;;;4.10;;
40537;SDS011;27925;41.874;12.526;2022-08-21T00:13:42;8.88;;;4.38;;
40537;SDS011;27925;41.874;12.526;2022-08-21T00:16:08;9.05;;;4.28;;
40537;SDS011;27925;41.874;12.526;2022-08-21T00:18:34;8.27;;;4.18;;
40537;SDS011;27925;41.874;12.526;2022-08-21T00:21:00;9.57;;;4.63;;
40537;SDS011;27925;41.874;12.526;2022-08-21T00:23:26;9.23;;;4.43;;
40537;SDS011;27925;41.874;12.526;2022-08-21T00:25:52;16.10;;;4.90;;
40537;SDS011;27925;41.874;12.526;2022-08-21T00:28:17;11.00;;;4.63;;
40537;SDS011;27925;41.874;12.526;2022-08-21T00:30:43;10.85;;;5.00;;
40537;SDS011;27925;41.874;12.526;2022-08-21T00:33:10;9.35;;;4.47;;
40537;SDS011;27925;41.874;12.526;2022-08-21T00:35:37;9.70;;;4.57;;
40537;SDS011;27925;41.874;12.526;2022-08-21T00:38:05;11.77;;;4.75;;
40537;SDS011;27925;41.874;12.526;2022-08-21T00:40:37;10.38;;;4.78;;
40537;SDS011;27925;41.874;12.526;2022-08-21T00:43:07;7.90;;;4.50;;
40537;SDS011;27925;41.874;12.526;2022-08-21T00:45:35;8.30;;;4.53;;
40537;SDS011;27925;41.874;12.526;2022-08-21T00:48:01;9.70;;;4.40;;
40537;SDS011;27925;41.874;12.526;2022-08-21T00:50:28;14.05;;;4.70;;
40537;SDS011;27925;41.874;12.526;2022-08-21T00:52:58;8.45;;;4.28;;
40537;SDS011;27925;41.874;12.526;2022-08-21T00:55:26;7.15;;;4.43;;
40537;SDS011;27925;41.874;12.526;2022-08-21T00:57:55;11.25;;;4.53;;
40537;SDS011;27925;41.874;12.526;2022-08-21T01:00:25;9.13;;;4.70;;
40537;SDS011;27925;41.874;12.526;2022-08-21T01:02:55;10.82;;;4.85;;
40537;SDS011;27925;41.874;12.526;2022-08-21T01:05:24;10.85;;;4.18;;
40537;SDS011;27925;41.874;12.526;2022-08-21T01:07:51;10.45;;;3.97;;
40537;SDS011;27925;41.874;12.526;2022-08-21T01:10:17;11.35;;;4.82;;
40537;SDS011;27925;41.874;12.526;2022-08-21T01:12:43;10.57;;;4.45;;
40537;SDS011;27925;41.874;12.526;2022-08-21T01:15:09;9.32;;;4.55;;
40537;SDS011;27925;41.874;12.526;2022-08-21T01:17:35;8.15;;;4.05;;
40537;SDS011;27925;41.874;12.526;2022-08-21T01:20:03;9.18;;;4.03;;
40537;SDS011;27925;41.874;12.526;2022-08-21T01:22:32;12.07;;;4.47;;
40537;SDS011;27925;41.874;12.526;2022-08-21T01:24:57;10.55;;;3.92;;
40537;SDS011;27925;41.874;12.526;2022-08-21T01:27:23;8.23;;;3.38;;
40537;SDS011;27925;41.874;12.526;2022-08-21T01:29:54;6.85;;;3.78;;
40537;SDS011;27925;41.874;12.526;2022-08-21T01:32:33;12.52;;;4.13;;
40537;SDS011;27925;41.874;12.526;2022-08-21T01:35:00;8.48;;;3.83;;
40537;SDS011;27925;41.874;12.526;2022-08-21T01:37:26;5.78;;;3.47;;
40537;SDS011;27925;41.874;12.526;2022-08-21T01:39:52;8.82;;;3.80;;
40537;SDS011;27925;41.874;12.526;2022-08-21T01:42:18;10.20;;;3.78;;
40537;SDS011;27925;41.874;12.526;2022-08-21T01:44:44;7.38;;;3.83;;
40537;SDS011;27925;41.874;12.526;2022-08-21T01:47:11;6.93;;;3.30;;
40537;SDS011;27925;41.874;12.526;2022-08-21T01:49:38;9.80;;;3.85;;
40537;SDS011;27925;41.874;12.526;2022-08-21T01:52:05;9.98;;;4.10;;
40537;SDS011;27925;41.874;12.526;2022-08-21T01:54:31;10.98;;;3.78;;
40537;SDS011;27925;41.874;12.526;2022-08-21T01:56:57;9.93;;;4.28;;
40537;SDS011;27925;41.874;12.526;2022-08-21T01:59:24;7.90;;;3.70;;
40537;SDS011;27925;41.874;12.526;2022-08-21T02:01:50;10.90;;;4.25;;
40537;SDS011;27925;41.874;12.526;2022-08-21T02:04:18;11.23;;;4.22;;
40537;SDS011;27925;41.874;12.526;2022-08-21T02:06:45;8.07;;;3.75;;
40537;SDS011;27925;41.874;12.526;2022-08-21T02:09:11;8.27;;;4.07;;
40537;SDS011;27925;41.874;12.526;2022-08-21T02:11:38;7.20;;;3.40;;
40537;SDS011;27925;41.874;12.526;2022-08-21T02:14:12;7.05;;;3.55;;
40537;SDS011;27925;41.874;12.526;2022-08-21T02:16:40;10.32;;;3.65;;
40537;SDS011;27925;41.874;12.526;2022-08-21T02:19:07;7.55;;;3.55;;
40537;SDS011;27925;41.874;12.526;2022-08-21T02:21:34;10.13;;;4.05;;
40537;SDS011;27925;41.874;12.526;2022-08-21T02:24:00;8.02;;;3.80;;
40537;SDS011;27925;41.874;12.526;2022-08-21T02:26:26;6.82;;;3.78;;
40537;SDS011;27925;41.874;12.526;2022-08-21T02:28:52;11.15;;;3.72;;
40537;SDS011;27925;41.874;12.526;2022-08-21T02:31:18;9.57;;;3.58;;
40537;SDS011;27925;41.874;12.526;2022-08-21T02:33:43;8.73;;;3.28;;
40537;SDS011;27925;41.874;12.526;2022-08-21T02:36:10;9.20;;;3.67;;
40537;SDS011;27925;41.874;12.526;2022-08-21T02:38:37;9.75;;;3.97;;
40537;SDS011;27925;41.874;12.526;2022-08-21T02:41:05;9.40;;;4.20;;
40537;SDS011;27925;41.874;12.526;2022-08-21T02:43:32;10.13;;;3.80;;
40537;SDS011;27925;41.874;12.526;2022-08-21T02:45:58;8.68;;;3.63;;
40537;SDS011;27925;41.874;12.526;2022-08-21T02:48:26;7.03;;;3.72;;
40537;SDS011;27925;41.874;12.526;2022-08-21T02:50:57;10.90;;;3.80;;
40537;SDS011;27925;41.874;12.526;2022-08-21T02:53:25;9.40;;;3.75;;
40537;SDS011;27925;41.874;12.526;2022-08-21T02:55:51;9.73;;;4.10;;
40537;SDS011;27925;41.874;12.526;2022-08-21T02:58:19;9.40;;;4.15;;
40537;SDS011;27925;41.874;12.526;2022-08-21T03:00:47;10.13;;;4.07;;
40537;SDS011;27925;41.874;12.526;2022-08-21T03:03:13;8.43;;;3.38;;
40537;SDS011;27925;41.874;12.526;2022-08-21T03:05:39;7.90;;;3.72;;
40537;SDS011;27925;41.874;12.526;2022-08-21T03:08:06;7.85;;;3.75;;
40537;SDS011;27925;41.874;12.526;2022-08-21T03:10:35;6.90;;;3.42;;
40537;SDS011;27925;41.874;12.526;2022-08-21T03:13:05;8.40;;;3.67;;
40537;SDS011;27925;41.874;12.526;2022-08-21T03:15:31;7.45;;;3.45;;
40537;SDS011;27925;41.874;12.526;2022-08-21T03:17:57;6.82;;;3.70;;
40537;SDS011;27925;41.874;12.526;2022-08-21T03:20:24;9.70;;;3.70;;
40537;SDS011;27925;41.874;12.526;2022-08-21T03:22:52;10.43;;;3.97;;
40537;SDS011;27925;41.874;12.526;2022-08-21T03:25:18;8.45;;;3.70;;
40537;SDS011;27925;41.874;12.526;2022-08-21T03:27:48;8.02;;;3.35;;
40537;SDS011;27925;41.874;12.526;2022-08-21T03:30:15;6.72;;;3.40;;
40537;SDS011;27925;41.874;12.526;2022-08-21T03:32:42;8.50;;;3.70;;
40537;SDS011;27925;41.874;12.526;2022-08-21T03:35:08;8.27;;;4.00;;
40537;SDS011;27925;41.874;12.526;2022-08-21T03:37:34;8.57;;;3.60;;
40537;SDS011;27925;41.874;12.526;2022-08-21T03:40:02;7.13;;;3.60;;
40537;SDS011;27925;41.874;12.526;2022-08-21T03:42:29;9.65;;;3.58;;
40537;SDS011;27925;41.874;12.526;2022-08-21T03:44:55;8.52;;;3.88;;
40537;SDS011;27925;41.874;12.526;2022-08-21T03:47:21;9.43;;;3.72;;
40537;SDS011;27925;41.874;12.526;2022-08-21T03:49:47;12.00;;;4.20;;
40537;SDS011;27925;41.874;12.526;2022-08-21T03:52:13;6.18;;;3.60;;
40537;SDS011;27925;41.874;12.526;2022-08-21T03:54:39;8.65;;;4.10;;
40537;SDS011;27925;41.874;12.526;2022-08-21T03:57:07;10.93;;;4.20;;
40537;SDS011;27925;41.874;12.526;2022-08-21T03:59:33;7.32;;;3.80;;
40537;SDS011;27925;41.874;12.526;2022-08-21T04:02:00;9.30;;;4.40;;
40537;SDS011;27925;41.874;12.526;2022-08-21T04:04:29;9.93;;;3.78;;
40537;SDS011;27925;41.874;12.526;2022-08-21T04:06:55;7.50;;;3.58;;
40537;SDS011;27925;41.874;12.526;2022-08-21T04:09:22;10.85;;;3.80;;
40537;SDS011;27925;41.874;12.526;2022-08-21T04:11:49;7.68;;;3.10;;
40537;SDS011;27925;41.874;12.526;2022-08-21T04:14:15;10.15;;;2.90;;
40537;SDS011;27925;41.874;12.526;2022-08-21T04:16:42;7.57;;;3.38;;
40537;SDS011;27925;41.874;12.526;2022-08-21T04:19:09;9.10;;;3.28;;
40537;SDS011;27925;41.874;12.526;2022-08-21T04:21:36;9.13;;;3.20;;
40537;SDS011;27925;41.874;12.526;2022-08-21T04:24:03;8.95;;;3.42;;
40537;SDS011;27925;41.874;12.526;2022-08-21T04:26:29;7.65;;;3.50;;
40537;SDS011;27925;41.874;12.526;2022-08-21T04:28:56;11.57;;;3.90;;
40537;SDS011;27925;41.874;12.526;2022-08-21T04:31:23;8.93;;;3.42;;
40537;SDS011;27925;41.874;12.526;2022-08-21T04:33:49;9.75;;;3.78;;
40537;SDS011;27925;41.874;12.526;2022-08-21T04:36:15;7.32;;;3.20;;
40537;SDS011;27925;41.874;12.526;2022-08-21T04:38:42;8.50;;;3.15;;
40537;SDS011;27925;41.874;12.526;2022-08-21T04:41:07;7.93;;;2.70;;
40537;SDS011;27925;41.874;12.526;2022-08-21T04:43:33;6.28;;;2.78;;
40537;SDS011;27925;41.874;12.526;2022-08-21T04:45:59;7.32;;;2.80;;
40537;SDS011;27925;41.874;12.526;2022-08-21T04:48:25;7.93;;;2.75;;
40537;SDS011;27925;41.874;12.526;2022-08-21T04:53:30;4.90;;;2.30;;
40537;SDS011;27925;41.874;12.526;2022-08-21T04:56:02;8.43;;;2.80;;
40537;SDS011;27925;41.874;12.526;2022-08-21T04:58:33;7.50;;;2.88;;
40537;SDS011;27925;41.874;12.526;2022-08-21T05:00:59;8.77;;;2.80;;
40537;SDS011;27925;41.874;12.526;2022-08-21T05:03:26;9.32;;;2.90;;
40537;SDS011;27925;41.874;12.526;2022-08-21T05:05:53;9.73;;;2.92;;
40537;SDS011;27925;41.874;12.526;2022-08-21T05:08:19;5.70;;;2.72;;
40537;SDS011;27925;41.874;12.526;2022-08-21T05:10:48;8.00;;;2.70;;
40537;SDS011;27925;41.874;12.526;2022-08-21T05:13:14;7.60;;;3.13;;
40537;SDS011;27925;41.874;12.526;2022-08-21T05:15:41;5.25;;;2.75;;
40537;SDS011;27925;41.874;12.526;2022-08-21T05:18:07;8.85;;;2.72;;
40537;SDS011;27925;41.874;12.526;2022-08-21T05:20:33;11.48;;;3.10;;
40537;SDS011;27925;41.874;12.526;2022-08-21T05:22:59;10.68;;;3.35;;
40537;SDS011;27925;41.874;12.526;2022-08-21T05:25:26;6.07;;;2.78;;
40537;SDS011;27925;41.874;12.526;2022-08-21T05:27:52;8.57;;;3.20;;
40537;SDS011;27925;41.874;12.526;2022-08-21T05:30:19;8.50;;;2.75;;
40537;SDS011;27925;41.874;12.526;2022-08-21T05:32:45;7.20;;;2.78;;
40537;SDS011;27925;41.874;12.526;2022-08-21T05:35:12;8.88;;;2.70;;
40537;SDS011;27925;41.874;12.526;2022-08-21T05:37:38;9.95;;;2.63;;
40537;SDS011;27925;41.874;12.526;2022-08-21T05:40:05;9.13;;;2.58;;
40537;SDS011;27925;41.874;12.526;2022-08-21T05:42:32;8.70;;;2.40;;
40537;SDS011;27925;41.874;12.526;2022-08-21T05:44:58;11.07;;;2.75;;
40537;SDS011;27925;41.874;12.526;2022-08-21T05:47:24;6.53;;;2.80;;
40537;SDS011;27925;41.874;12.526;2022-08-21T05:49:50;7.97;;;2.90;;
40537;SDS011;27925;41.874;12.526;2022-08-21T05:52:19;6.50;;;2.40;;
40537;SDS011;27925;41.874;12.526;2022-08-21T05:54:45;5.72;;;2.35;;
40537;SDS011;27925;41.874;12.526;2022-08-21T05:57:11;7.07;;;2.67;;
40537;SDS011;27925;41.874;12.526;2022-08-21T05:59:37;8.82;;;2.55;;
40537;SDS011;27925;41.874;12.526;2022-08-21T06:02:03;9.27;;;3.13;;
40537;SDS011;27925;41.874;12.526;2022-08-21T06:04:29;7.00;;;2.78;;
40537;SDS011;27925;41.874;12.526;2022-08-21T06:06:55;7.30;;;2.75;;
40537;SDS011;27925;41.874;12.526;2022-08-21T06:09:20;7.18;;;2.58;;
40537;SDS011;27925;41.874;12.526;2022-08-21T06:11:46;5.32;;;2.63;;
40537;SDS011;27925;41.874;12.526;2022-08-21T06:14:15;12.57;;;2.80;;
40537;SDS011;27925;41.874;12.526;2022-08-21T06:16:41;8.02;;;3.08;;
40537;SDS011;27925;41.874;12.526;2022-08-21T06:19:07;7.63;;;3.10;;
40537;SDS011;27925;41.874;12.526;2022-08-21T06:21:33;8.93;;;3.10;;
40537;SDS011;27925;41.874;12.526;2022-08-21T06:23:58;7.78;;;3.30;;
40537;SDS011;27925;41.874;12.526;2022-08-21T06:26:24;7.70;;;3.00;;
40537;SDS011;27925;41.874;12.526;2022-08-21T06:28:50;7.43;;;2.72;;
40537;SDS011;27925;41.874;12.526;2022-08-21T06:31:20;10.40;;;2.60;;
40537;SDS011;27925;41.874;12.526;2022-08-21T06:33:47;6.63;;;2.90;;
40537;SDS011;27925;41.874;12.526;2022-08-21T06:36:13;5.63;;;2.40;;
40537;SDS011;27925;41.874;12.526;2022-08-21T06:38:39;6.50;;;2.60;;
40537;SDS011;27925;41.874;12.526;2022-08-21T06:41:05;4.63;;;2.40;;
40537;SDS011;27925;41.874;12.526;2022-08-21T06:43:32;6.35;;;2.90;;
40537;SDS011;27925;41.874;12.526;2022-08-21T06:45:58;6.00;;;3.00;;
40537;SDS011;27925;41.874;12.526;2022-08-21T06:48:23;5.85;;;2.33;;
40537;SDS011;27925;41.874;12.526;2022-08-21T06:50:49;5.28;;;2.55;;
40537;SDS011;27925;41.874;12.526;2022-08-21T06:53:16;6.95;;;2.70;;
40537;SDS011;27925;41.874;12.526;2022-08-21T06:55:46;6.55;;;2.70;;
40537;SDS011;27925;41.874;12.526;2022-08-21T06:58:14;7.22;;;2.30;;
40537;SDS011;27925;41.874;12.526;2022-08-21T07:00:42;6.25;;;2.60;;
40537;SDS011;27925;41.874;12.526;2022-08-21T07:03:16;6.13;;;2.50;;
40537;SDS011;27925;41.874;12.526;2022-08-21T07:05:55;4.63;;;2.42;;
40537;SDS011;27925;41.874;12.526;2022-08-21T07:08:23;5.05;;;2.45;;
40537;SDS011;27925;41.874;12.526;2022-08-21T07:10:50;9.20;;;2.72;;
40537;SDS011;27925;41.874;12.526;2022-08-21T07:13:17;6.22;;;2.47;;
40537;SDS011;27925;41.874;12.526;2022-08-21T07:15:43;6.28;;;2.40;;
40537;SDS011;27925;41.874;12.526;2022-08-21T07:18:09;7.05;;;2.83;;
40537;SDS011;27925;41.874;12.526;2022-08-21T07:20:36;7.32;;;3.15;;
40537;SDS011;27925;41.874;12.526;2022-08-21T07:23:03;5.18;;;2.45;;
40537;SDS011;27925;41.874;12.526;2022-08-21T07:25:34;4.90;;;2.13;;
40537;SDS011;27925;41.874;12.526;2022-08-21T07:28:00;5.15;;;2.40;;
40537;SDS011;27925;41.874;12.526;2022-08-21T07:30:26;5.72;;;2.42;;
40537;SDS011;27925;41.874;12.526;2022-08-21T07:32:52;10.40;;;2.45;;
40537;SDS011;27925;41.874;12.526;2022-08-21T07:35:18;7.35;;;2.80;;
40537;SDS011;27925;41.874;12.526;2022-08-21T07:37:45;6.82;;;2.70;;
40537;SDS011;27925;41.874;12.526;2022-08-21T07:40:11;7.43;;;2.70;;
40537;SDS011;27925;41.874;12.526;2022-08-21T07:42:44;6.30;;;2.67;;
40537;SDS011;27925;41.874;12.526;2022-08-21T07:45:12;8.20;;;2.40;;
40537;SDS011;27925;41.874;12.526;2022-08-21T07:47:38;5.88;;;2.40;;
40537;SDS011;27925;41.874;12.526;2022-08-21T07:50:05;5.57;;;2.45;;
40537;SDS011;27925;41.874;12.526;2022-08-21T07:52:31;5.53;;;2.60;;
40537;SDS011;27925;41.874;12.526;2022-08-21T07:54:58;4.35;;;2.30;;
40537;SDS011;27925;41.874;12.526;2022-08-21T07:57:23;8.10;;;2.63;;
40537;SDS011;27925;41.874;12.526;2022-08-21T07:59:49;10.00;;;2.92;;
40537;SDS011;27925;41.874;12.526;2022-08-21T08:02:24;7.93;;;2.70;;
40537;SDS011;27925;41.874;12.526;2022-08-21T08:04:52;7.22;;;2.67;;
40537;SDS011;27925;41.874;12.526;2022-08-21T08:07:18;7.68;;;2.70;;
40537;SDS011;27925;41.874;12.526;2022-08-21T08:09:44;6.72;;;2.67;;
40537;SDS011;27925;41.874;12.526;2022-08-21T08:12:10;8.00;;;3.05;;
40537;SDS011;27925;41.874;12.526;2022-08-21T08:14:36;7.68;;;2.95;;
40537;SDS011;27925;41.874;12.526;2022-08-21T08:17:02;6.25;;;2.60;;
40537;SDS011;27925;41.874;12.526;2022-08-21T08:19:28;5.90;;;2.70;;
40537;SDS011;27925;41.874;12.526;2022-08-21T08:21:54;6.28;;;2.60;;
40537;SDS011;27925;41.874;12.526;2022-08-21T08:24:20;6.22;;;2.97;;
40537;SDS011;27925;41.874;12.526;2022-08-21T08:26:46;6.32;;;2.42;;
40537;SDS011;27925;41.874;12.526;2022-08-21T08:29:12;5.78;;;2.95;;
40537;SDS011;27925;41.874;12.526;2022-08-21T08:31:38;11.55;;;2.90;;
40537;SDS011;27925;41.874;12.526;2022-08-21T08:34:03;5.47;;;2.38;;
40537;SDS011;27925;41.874;12.526;2022-08-21T08:36:33;7.03;;;2.70;;
40537;SDS011;27925;41.874;12.526;2022-08-21T08:39:01;13.52;;;3.03;;
40537;SDS011;27925;41.874;12.526;2022-08-21T08:41:31;4.80;;;2.28;;
40537;SDS011;27925;41.874;12.526;2022-08-21T08:43:58;5.55;;;2.60;;
40537;SDS011;27925;41.874;12.526;2022-08-21T08:46:38;8.68;;;2.75;;
40537;SDS011;27925;41.874;12.526;2022-08-21T08:49:20;6.72;;;2.55;;
40537;SDS011;27925;41.874;12.526;2022-08-21T08:57:33;9.27;;;3.05;;
40537;SDS011;27925;41.874;12.526;2022-08-21T09:00:01;6.53;;;2.38;;
40537;SDS011;27925;41.874;12.526;2022-08-21T09:02:34;9.00;;;2.50;;
40537;SDS011;27925;41.874;12.526;2022-08-21T09:05:05;5.10;;;2.53;;
40537;SDS011;27925;41.874;12.526;2022-08-21T09:10:21;7.90;;;2.28;;
40537;SDS011;27925;41.874;12.526;2022-08-21T09:13:29;9.27;;;2.60;;
40537;SDS011;27925;41.874;12.526;2022-08-21T09:21:51;9.18;;;2.38;;
40537;SDS011;27925;41.874;12.526;2022-08-21T09:24:42;4.28;;;2.15;;
40537;SDS011;27925;41.874;12.526;2022-08-21T09:27:13;7.80;;;2.53;;
40537;SDS011;27925;41.874;12.526;2022-08-21T09:29:41;7.30;;;2.70;;
40537;SDS011;27925;41.874;12.526;2022-08-21T09:32:20;6.70;;;2.70;;
40537;SDS011;27925;41.874;12.526;2022-08-21T09:35:22;8.82;;;2.80;;
40537;SDS011;27925;41.874;12.526;2022-08-21T09:40:19;8.73;;;2.53;;
40537;SDS011;27925;41.874;12.526;2022-08-21T09:42:59;7.05;;;2.80;;
40537;SDS011;27925;41.874;12.526;2022-08-21T09:45:44;5.28;;;2.50;;
40537;SDS011;27925;41.874;12.526;2022-08-21T09:48:12;5.38;;;2.10;;
40537;SDS011;27925;41.874;12.526;2022-08-21T09:50:38;4.05;;;2.30;;
40537;SDS011;27925;41.874;12.526;2022-08-21T09:53:05;6.55;;;2.38;;
40537;SDS011;27925;41.874;12.526;2022-08-21T09:55:46;4.75;;;2.05;;
40537;SDS011;27925;41.874;12.526;2022-08-21T09:58:36;5.53;;;2.15;;
40537;SDS011;27925;41.874;12.526;2022-08-21T10:01:04;6.95;;;2.40;;
40537;SDS011;27925;41.874;12.526;2022-08-21T10:03:31;7.43;;;2.58;;
40537;SDS011;27925;41.874;12.526;2022-08-21T10:06:02;6.50;;;2.72;;
40537;SDS011;27925;41.874;12.526;2022-08-21T10:08:34;4.70;;;2.20;;
40537;SDS011;27925;41.874;12.526;2022-08-21T10:11:05;6.88;;;2.35;;
40537;SDS011;27925;41.874;12.526;2022-08-21T10:14:16;5.75;;;3.33;;
40537;SDS011;27925;41.874;12.526;2022-08-21T10:16:33;15.20;;;12.63;;
40537;SDS011;27925;41.874;12.526;2022-08-21T10:20:19;6.43;;;2.92;;
40537;SDS011;27925;41.874;12.526;2022-08-21T10:25:01;5.75;;;2.35;;
40537;SDS011;27925;41.874;12.526;2022-08-21T10:36:09;5.75;;;2.42;;
40537;SDS011;27925;41.874;12.526;2022-08-21T10:47:05;6.75;;;2.70;;
40537;SDS011;27925;41.874;12.526;2022-08-21T10:52:59;5.53;;;2.00;;
40537;SDS011;27925;41.874;12.526;2022-08-21T10:55:44;6.50;;;2.13;;
40537;SDS011;27925;41.874;12.526;2022-08-21T10:58:34;5.53;;;2.00;;
40537;SDS011;27925;41.874;12.526;2022-08-21T11:01:12;5.72;;;2.35;;
40537;SDS011;27925;41.874;12.526;2022-08-21T11:03:44;6.03;;;2.17;;
40537;SDS011;27925;41.874;12.526;2022-08-21T11:06:14;3.97;;;2.17;;
40537;SDS011;27925;41.874;12.526;2022-08-21T11:09:12;4.95;;;1.85;;
40537;SDS011;27925;41.874;12.526;2022-08-21T11:11:47;4.05;;;2.00;;
40537;SDS011;27925;41.874;12.526;2022-08-21T11:17:11;3.33;;;1.70;;
40537;SDS011;27925;41.874;12.526;2022-08-21T11:22:15;3.38;;;1.55;;
40537;SDS011;27925;41.874;12.526;2022-08-21T11:25:29;6.93;;;2.67;;
40537;SDS011;27925;41.874;12.526;2022-08-21T11:28:15;4.57;;;1.80;;
40537;SDS011;27925;41.874;12.526;2022-08-21T11:34:47;5.63;;;3.22;;
40537;SDS011;27925;41.874;12.526;2022-08-21T11:40:04;5.93;;;1.70;;
40537;SDS011;27925;41.874;12.526;2022-08-21T11:42:50;4.28;;;1.60;;
40537;SDS011;27925;41.874;12.526;2022-08-21T11:47:58;3.65;;;1.70;;
40537;SDS011;27925;41.874;12.526;2022-08-21T11:50:34;3.83;;;1.48;;
40537;SDS011;27925;41.874;12.526;2022-08-21T11:53:17;5.10;;;1.90;;
40537;SDS011;27925;41.874;12.526;2022-08-21T12:01:00;6.50;;;2.47;;
40537;SDS011;27925;41.874;12.526;2022-08-21T12:03:36;10.45;;;2.53;;
40537;SDS011;27925;41.874;12.526;2022-08-21T12:06:09;6.10;;;2.50;;
40537;SDS011;27925;41.874;12.526;2022-08-21T12:08:37;5.93;;;2.13;;
40537;SDS011;27925;41.874;12.526;2022-08-21T12:16:42;5.95;;;2.15;;
40537;SDS011;27925;41.874;12.526;2022-08-21T12:19:14;5.03;;;2.10;;
40537;SDS011;27925;41.874;12.526;2022-08-21T12:24:44;5.20;;;1.75;;
40537;SDS011;27925;41.874;12.526;2022-08-21T12:29:38;5.45;;;1.90;;
40537;SDS011;27925;41.874;12.526;2022-08-21T12:34:50;5.50;;;1.90;;
40537;SDS011;27925;41.874;12.526;2022-08-21T12:37:30;3.10;;;1.58;;
40537;SDS011;27925;41.874;12.526;2022-08-21T12:40:10;6.18;;;1.70;;
40537;SDS011;27925;41.874;12.526;2022-08-21T12:42:43;4.00;;;1.95;;
40537;SDS011;27925;41.874;12.526;2022-08-21T12:47:47;3.20;;;1.70;;
40537;SDS011;27925;41.874;12.526;2022-08-21T12:53:22;3.70;;;1.50;;
40537;SDS011;27925;41.874;12.526;2022-08-21T12:56:03;4.07;;;1.80;;
40537;SDS011;27925;41.874;12.526;2022-08-21T12:58:34;4.90;;;1.77;;
40537;SDS011;27925;41.874;12.526;2022-08-21T13:01:04;3.47;;;1.42;;
40537;SDS011;27925;41.874;12.526;2022-08-21T13:03:34;3.67;;;1.60;;
40537;SDS011;27925;41.874;12.526;2022-08-21T13:06:02;4.35;;;1.48;;
40537;SDS011;27925;41.874;12.526;2022-08-21T13:08:30;3.28;;;1.38;;
40537;SDS011;27925;41.874;12.526;2022-08-21T13:11:01;3.35;;;1.52;;
40537;SDS011;27925;41.874;12.526;2022-08-21T13:13:29;3.92;;;1.90;;
40537;SDS011;27925;41.874;12.526;2022-08-21T13:16:00;3.53;;;1.52;;
40537;SDS011;27925;41.874;12.526;2022-08-21T13:21:06;3.75;;;1.77;;
40537;SDS011;27925;41.874;12.526;2022-08-21T13:23:36;4.28;;;1.88;;
40537;SDS011;27925;41.874;12.526;2022-08-21T13:26:11;3.72;;;1.88;;
40537;SDS011;27925;41.874;12.526;2022-08-21T13:28:39;4.60;;;1.90;;
40537;SDS011;27925;41.874;12.526;2022-08-21T13:31:06;3.72;;;1.80;;
40537;SDS011;27925;41.874;12.526;2022-08-21T13:33:35;6.47;;;2.00;;
40537;SDS011;27925;41.874;12.526;2022-08-21T13:36:05;6.53;;;1.88;;
40537;SDS011;27925;41.874;12.526;2022-08-21T13:38:41;5.57;;;1.80;;
40537;SDS011;27925;41.874;12.526;2022-08-21T13:43:44;2.97;;;1.50;;
40537;SDS011;27925;41.874;12.526;2022-08-21T13:46:13;8.93;;;1.95;;
40537;SDS011;27925;41.874;12.526;2022-08-21T13:48:40;7.70;;;1.95;;
40537;SDS011;27925;41.874;12.526;2022-08-21T13:51:06;6.30;;;2.05;;
40537;SDS011;27925;41.874;12.526;2022-08-21T13:53:35;6.97;;;2.00;;
40537;SDS011;27925;41.874;12.526;2022-08-21T13:56:20;3.78;;;1.80;;
40537;SDS011;27925;41.874;12.526;2022-08-21T13:58:47;3.50;;;1.70;;
40537;SDS011;27925;41.874;12.526;2022-08-21T14:01:18;5.10;;;2.00;;
40537;SDS011;27925;41.874;12.526;2022-08-21T14:04:38;5.05;;;1.98;;
40537;SDS011;27925;41.874;12.526;2022-08-21T14:06:46;6.60;;;2.03;;
40537;SDS011;27925;41.874;12.526;2022-08-21T14:09:24;5.50;;;1.98;;
40537;SDS011;27925;41.874;12.526;2022-08-21T14:11:59;7.18;;;1.88;;
40537;SDS011;27925;41.874;12.526;2022-08-21T14:14:32;4.72;;;2.03;;
40537;SDS011;27925;41.874;12.526;2022-08-21T14:17:04;6.80;;;1.92;;
40537;SDS011;27925;41.874;12.526;2022-08-21T14:30:39;5.65;;;1.63;;
40537;SDS011;27925;41.874;12.526;2022-08-21T14:33:09;6.80;;;1.90;;
40537;SDS011;27925;41.874;12.526;2022-08-21T14:35:37;8.10;;;1.90;;
40537;SDS011;27925;41.874;12.526;2022-08-21T14:38:10;4.82;;;1.83;;
40537;SDS011;27925;41.874;12.526;2022-08-21T14:40:45;3.67;;;1.80;;
40537;SDS011;27925;41.874;12.526;2022-08-21T14:43:14;6.75;;;1.98;;
40537;SDS011;27925;41.874;12.526;2022-08-21T14:45:40;4.85;;;1.85;;
40537;SDS011;27925;41.874;12.526;2022-08-21T14:48:06;4.03;;;1.67;;
40537;SDS011;27925;41.874;12.526;2022-08-21T14:50:32;7.90;;;2.30;;
40537;SDS011;27925;41.874;12.526;2022-08-21T14:52:58;6.40;;;1.88;;
40537;SDS011;27925;41.874;12.526;2022-08-21T14:55:24;7.18;;;2.08;;
40537;SDS011;27925;41.874;12.526;2022-08-21T14:57:51;5.60;;;1.80;;
40537;SDS011;27925;41.874;12.526;2022-08-21T15:00:19;7.32;;;1.90;;
40537;SDS011;27925;41.874;12.526;2022-08-21T15:02:49;4.50;;;1.90;;
40537;SDS011;27925;41.874;12.526;2022-08-21T15:05:16;3.25;;;1.42;;
40537;SDS011;27925;41.874;12.526;2022-08-21T15:07:42;7.63;;;1.85;;
40537;SDS011;27925;41.874;12.526;2022-08-21T15:10:09;5.70;;;1.80;;
40537;SDS011;27925;41.874;12.526;2022-08-21T15:12:35;3.72;;;1.80;;
40537;SDS011;27925;41.874;12.526;2022-08-21T15:15:02;4.20;;;1.80;;
40537;SDS011;27925;41.874;12.526;2022-08-21T15:17:32;6.30;;;1.90;;
40537;SDS011;27925;41.874;12.526;2022-08-21T15:19:58;7.75;;;2.22;;
40537;SDS011;27925;41.874;12.526;2022-08-21T15:22:23;4.72;;;1.90;;
40537;SDS011;27925;41.874;12.526;2022-08-21T15:24:49;5.90;;;2.00;;
40537;SDS011;27925;41.874;12.526;2022-08-21T15:27:15;6.03;;;1.80;;
40537;SDS011;27925;41.874;12.526;2022-08-21T15:29:43;4.95;;;2.10;;
40537;SDS011;27925;41.874;12.526;2022-08-21T15:32:25;3.03;;;1.70;;
40537;SDS011;27925;41.874;12.526;2022-08-21T15:34:54;3.45;;;1.77;;
40537;SDS011;27925;41.874;12.526;2022-08-21T15:37:21;3.17;;;1.67;;
40537;SDS011;27925;41.874;12.526;2022-08-21T15:39:48;7.32;;;1.80;;
40537;SDS011;27925;41.874;12.526;2022-08-21T15:42:14;4.47;;;1.58;;
40537;SDS011;27925;41.874;12.526;2022-08-21T15:44:40;4.72;;;1.73;;
40537;SDS011;27925;41.874;12.526;2022-08-21T15:47:11;5.15;;;1.85;;
40537;SDS011;27925;41.874;12.526;2022-08-21T15:49:40;5.70;;;2.47;;
40537;SDS011;27925;41.874;12.526;2022-08-21T15:52:09;3.58;;;1.85;;
40537;SDS011;27925;41.874;12.526;2022-08-21T15:54:36;6.40;;;1.98;;
40537;SDS011;27925;41.874;12.526;2022-08-21T15:57:02;7.07;;;2.10;;
40537;SDS011;27925;41.874;12.526;2022-08-21T15:59:28;5.45;;;1.88;;
40537;SDS011;27925;41.874;12.526;2022-08-21T16:02:04;4.10;;;1.80;;
40537;SDS011;27925;41.874;12.526;2022-08-21T16:04:32;5.75;;;1.92;;
40537;SDS011;27925;41.874;12.526;2022-08-21T16:06:58;5.43;;;1.55;;
40537;SDS011;27925;41.874;12.526;2022-08-21T16:09:23;9.20;;;1.95;;
40537;SDS011;27925;41.874;12.526;2022-08-21T16:11:49;5.25;;;1.75;;
40537;SDS011;27925;41.874;12.526;2022-08-21T16:14:16;5.65;;;1.70;;
40537;SDS011;27925;41.874;12.526;2022-08-21T16:16:42;6.22;;;1.77;;
40537;SDS011;27925;41.874;12.526;2022-08-21T16:19:09;9.25;;;2.15;;
40537;SDS011;27925;41.874;12.526;2022-08-21T16:21:36;3.70;;;2.08;;
40537;SDS011;27925;41.874;12.526;2022-08-21T16:24:01;6.85;;;1.65;;